Aérodrome :







RETROUVEZ-NOUS SUR...

 
LOGIN :

S'inscrire | Disclaimer

   EN    FR    IT 

 









Légende :    VFR   VFR Marginal   IFR   IFR Intensif   IFR Très Intensif
Visi : 
Plafond : 
>= 8 km
>= 3000ft
5 à 8 km
1000 à 3000 ft
1500m à 5 km
500 à 1000 ft
800 à 1500m
200 à 500 ft
< 800m
< 200 ft
Symboles :   Orages  Brouillard  Fortes neiges  Fortes précipitations  Vent > 20 kt






- Altitude de l'aérodrome : 271 ft


KBAF - Barnes Municipal

DERNIER METAR :
  • 230853Z AUTO 31006KT 10SM CLR 12/06 A2980 RMK AO2 SLP092 T01170056 55004

METARs EXPIRÉS :
  • 230753Z AUTO 36008KT 320V030 10SM CLR 11/04 A2980 RMK AO2 SLP091 T01110044
  • 230653Z AUTO VRB04KT 10SM CLR 12/04 A2980 RMK AO2 SLP092 T01170039
  • 230553Z AUTO 08003KT 10SM CLR 09/03 A2981 RMK AO2 SLP097 T00890033 10150 20089 58003

TAF KBAF
Valide du 23 à 06h jusqu'au 24 à 06h UTC


230528Z 2306/2406 35006KT P6SM SKC
FM231000 32006KT P6SM FEW250
FM231700 31012G21KT P6SM SCT250
FM240000 30005KT P6SM SKC
FIR KZBW / Amérique du Nord



MET'MAP, la Météo Aéronautique d'un coup d'oeil ! - Copyright ORBIFLY Décembre 2007 - Disclaimer

ORBIFLY MET'MAP TEAM :

Programmation & Développement : Alexandra Zaïnal
Sur une idée originale de : Baudouin d'Aumeries
Assistance à la programmation : Marc-Olivier Méhu
Soutien technique & logistique : Manuel Goepfert

Contact : metmap@orbifly.com




SOURCES & CREDITS :

   NOAA